sensor_id;sensor_type;location;lat;lon;timestamp;pressure;altitude;pressure_sealevel;temperature
15680;BMP180;15488;48.114;11.532;2023-06-14T00:02:00;94928.00;;;23.90
15680;BMP180;15488;48.114;11.532;2023-06-14T00:04:27;94929.00;;;23.90
15680;BMP180;15488;48.114;11.532;2023-06-14T00:06:56;94928.00;;;23.80
15680;BMP180;15488;48.114;11.532;2023-06-14T00:09:23;94921.00;;;23.80
15680;BMP180;15488;48.114;11.532;2023-06-14T00:11:51;94926.00;;;23.80
15680;BMP180;15488;48.114;11.532;2023-06-14T00:14:18;94927.00;;;23.70
15680;BMP180;15488;48.114;11.532;2023-06-14T00:16:46;94920.00;;;23.70
15680;BMP180;15488;48.114;11.532;2023-06-14T00:19:15;94917.00;;;23.70
15680;BMP180;15488;48.114;11.532;2023-06-14T00:21:42;94922.00;;;23.60
15680;BMP180;15488;48.114;11.532;2023-06-14T00:24:10;94912.00;;;23.60
15680;BMP180;15488;48.114;11.532;2023-06-14T00:26:37;94914.00;;;23.60
15680;BMP180;15488;48.114;11.532;2023-06-14T00:29:05;94911.00;;;23.60
15680;BMP180;15488;48.114;11.532;2023-06-14T00:31:32;94916.00;;;23.50
15680;BMP180;15488;48.114;11.532;2023-06-14T00:34:00;94911.00;;;23.50
15680;BMP180;15488;48.114;11.532;2023-06-14T00:36:29;94914.00;;;23.50
15680;BMP180;15488;48.114;11.532;2023-06-14T00:38:56;94914.00;;;23.40
15680;BMP180;15488;48.114;11.532;2023-06-14T00:41:24;94915.00;;;23.40
15680;BMP180;15488;48.114;11.532;2023-06-14T00:43:51;94921.00;;;23.40
15680;BMP180;15488;48.114;11.532;2023-06-14T00:46:21;94914.00;;;23.40
15680;BMP180;15488;48.114;11.532;2023-06-14T00:48:49;94913.00;;;23.30
15680;BMP180;15488;48.114;11.532;2023-06-14T00:51:17;94912.00;;;23.30
15680;BMP180;15488;48.114;11.532;2023-06-14T00:53:46;94912.00;;;23.30
15680;BMP180;15488;48.114;11.532;2023-06-14T00:56:14;94917.00;;;23.30
15680;BMP180;15488;48.114;11.532;2023-06-14T00:58:42;94915.00;;;23.20
15680;BMP180;15488;48.114;11.532;2023-06-14T01:01:10;94913.00;;;23.20
15680;BMP180;15488;48.114;11.532;2023-06-14T01:03:38;94913.00;;;23.20
15680;BMP180;15488;48.114;11.532;2023-06-14T01:06:14;94915.00;;;23.10
15680;BMP180;15488;48.114;11.532;2023-06-14T01:08:50;94917.00;;;23.10
15680;BMP180;15488;48.114;11.532;2023-06-14T01:11:22;94921.00;;;23.10
15680;BMP180;15488;48.114;11.532;2023-06-14T01:13:52;94914.00;;;23.10
15680;BMP180;15488;48.114;11.532;2023-06-14T01:16:20;94915.00;;;23.00
15680;BMP180;15488;48.114;11.532;2023-06-14T01:18:48;94916.00;;;23.00
15680;BMP180;15488;48.114;11.532;2023-06-14T01:21:22;94908.00;;;23.00
15680;BMP180;15488;48.114;11.532;2023-06-14T01:23:52;94911.00;;;22.90
15680;BMP180;15488;48.114;11.532;2023-06-14T01:26:21;94911.00;;;22.90
15680;BMP180;15488;48.114;11.532;2023-06-14T01:28:49;94917.00;;;22.90
15680;BMP180;15488;48.114;11.532;2023-06-14T01:31:20;94913.00;;;22.90
15680;BMP180;15488;48.114;11.532;2023-06-14T01:33:49;94913.00;;;22.90
15680;BMP180;15488;48.114;11.532;2023-06-14T01:36:18;94904.00;;;22.80
15680;BMP180;15488;48.114;11.532;2023-06-14T01:38:47;94905.00;;;22.80
15680;BMP180;15488;48.114;11.532;2023-06-14T01:41:18;94899.00;;;22.80
15680;BMP180;15488;48.114;11.532;2023-06-14T01:43:46;94903.00;;;22.80
15680;BMP180;15488;48.114;11.532;2023-06-14T01:46:16;94896.00;;;22.70
15680;BMP180;15488;48.114;11.532;2023-06-14T01:48:44;94902.00;;;22.70
15680;BMP180;15488;48.114;11.532;2023-06-14T01:51:11;94896.00;;;22.70
15680;BMP180;15488;48.114;11.532;2023-06-14T01:53:39;94901.00;;;22.70
15680;BMP180;15488;48.114;11.532;2023-06-14T01:56:07;94898.00;;;22.70
15680;BMP180;15488;48.114;11.532;2023-06-14T01:58:36;94892.00;;;22.60
15680;BMP180;15488;48.114;11.532;2023-06-14T02:01:03;94895.00;;;22.60
15680;BMP180;15488;48.114;11.532;2023-06-14T02:03:31;94897.00;;;22.60
15680;BMP180;15488;48.114;11.532;2023-06-14T02:05:58;94900.00;;;22.60
15680;BMP180;15488;48.114;11.532;2023-06-14T02:08:26;94891.00;;;22.60
15680;BMP180;15488;48.114;11.532;2023-06-14T02:10:53;94893.00;;;22.50
15680;BMP180;15488;48.114;11.532;2023-06-14T02:13:21;94897.00;;;22.50
15680;BMP180;15488;48.114;11.532;2023-06-14T02:15:50;94899.00;;;22.50
15680;BMP180;15488;48.114;11.532;2023-06-14T02:18:20;94897.00;;;22.10
15680;BMP180;15488;48.114;11.532;2023-06-14T02:20:48;94895.00;;;22.50
15680;BMP180;15488;48.114;11.532;2023-06-14T02:23:15;94902.00;;;22.50
15680;BMP180;15488;48.114;11.532;2023-06-14T02:25:43;94893.00;;;22.40
15680;BMP180;15488;48.114;11.532;2023-06-14T02:28:11;94889.00;;;22.40
15680;BMP180;15488;48.114;11.532;2023-06-14T02:30:38;94894.00;;;22.40
15680;BMP180;15488;48.114;11.532;2023-06-14T02:33:08;94883.00;;;22.40
15680;BMP180;15488;48.114;11.532;2023-06-14T02:35:38;94889.00;;;22.30
15680;BMP180;15488;48.114;11.532;2023-06-14T02:38:06;94891.00;;;22.30
15680;BMP180;15488;48.114;11.532;2023-06-14T02:40:33;94890.00;;;22.30
15680;BMP180;15488;48.114;11.532;2023-06-14T02:43:00;94891.00;;;22.30
15680;BMP180;15488;48.114;11.532;2023-06-14T02:45:28;94884.00;;;22.20
15680;BMP180;15488;48.114;11.532;2023-06-14T02:47:55;94784.00;;;22.20
15680;BMP180;15488;48.114;11.532;2023-06-14T02:50:24;94889.00;;;22.20
15680;BMP180;15488;48.114;11.532;2023-06-14T02:52:52;94895.00;;;22.20
15680;BMP180;15488;48.114;11.532;2023-06-14T02:55:22;94894.00;;;22.10
15680;BMP180;15488;48.114;11.532;2023-06-14T02:57:49;94890.00;;;22.10
15680;BMP180;15488;48.114;11.532;2023-06-14T03:00:17;94888.00;;;22.10
15680;BMP180;15488;48.114;11.532;2023-06-14T03:02:45;94895.00;;;22.10
15680;BMP180;15488;48.114;11.532;2023-06-14T03:05:13;94894.00;;;22.00
15680;BMP180;15488;48.114;11.532;2023-06-14T03:07:41;94891.00;;;22.00
15680;BMP180;15488;48.114;11.532;2023-06-14T03:10:11;94896.00;;;22.00
15680;BMP180;15488;48.114;11.532;2023-06-14T03:12:39;94897.00;;;22.00
15680;BMP180;15488;48.114;11.532;2023-06-14T03:15:07;94901.00;;;22.00
15680;BMP180;15488;48.114;11.532;2023-06-14T03:17:35;94901.00;;;22.00
15680;BMP180;15488;48.114;11.532;2023-06-14T03:20:06;94905.00;;;21.90
15680;BMP180;15488;48.114;11.532;2023-06-14T03:22:34;94907.00;;;21.60
15680;BMP180;15488;48.114;11.532;2023-06-14T03:25:04;94908.00;;;21.90
15680;BMP180;15488;48.114;11.532;2023-06-14T03:27:31;94930.00;;;21.90
15680;BMP180;15488;48.114;11.532;2023-06-14T03:29:59;94921.00;;;21.90
15680;BMP180;15488;48.114;11.532;2023-06-14T03:32:26;94919.00;;;21.90
15680;BMP180;15488;48.114;11.532;2023-06-14T03:34:54;94926.00;;;21.80
15680;BMP180;15488;48.114;11.532;2023-06-14T03:37:21;94925.00;;;21.80
15680;BMP180;15488;48.114;11.532;2023-06-14T03:39:49;94920.00;;;21.80
15680;BMP180;15488;48.114;11.532;2023-06-14T03:42:18;94916.00;;;21.80
15680;BMP180;15488;48.114;11.532;2023-06-14T03:44:45;94914.00;;;21.80
15680;BMP180;15488;48.114;11.532;2023-06-14T03:47:13;94912.00;;;21.70
15680;BMP180;15488;48.114;11.532;2023-06-14T03:49:41;94924.00;;;21.70
15680;BMP180;15488;48.114;11.532;2023-06-14T03:52:08;94918.00;;;21.70
15680;BMP180;15488;48.114;11.532;2023-06-14T03:54:36;94929.00;;;21.70
15680;BMP180;15488;48.114;11.532;2023-06-14T03:57:03;94930.00;;;21.70
15680;BMP180;15488;48.114;11.532;2023-06-14T03:59:33;94940.00;;;21.70
15680;BMP180;15488;48.114;11.532;2023-06-14T04:02:01;94951.00;;;21.60
15680;BMP180;15488;48.114;11.532;2023-06-14T04:04:28;94941.00;;;21.60
15680;BMP180;15488;48.114;11.532;2023-06-14T04:06:56;94942.00;;;21.60
15680;BMP180;15488;48.114;11.532;2023-06-14T04:09:24;94946.00;;;21.60
15680;BMP180;15488;48.114;11.532;2023-06-14T04:11:52;94941.00;;;21.60
15680;BMP180;15488;48.114;11.532;2023-06-14T04:14:19;94950.00;;;21.60
15680;BMP180;15488;48.114;11.532;2023-06-14T04:16:49;94964.00;;;21.60
15680;BMP180;15488;48.114;11.532;2023-06-14T04:19:16;94961.00;;;21.60
15680;BMP180;15488;48.114;11.532;2023-06-14T04:21:44;94964.00;;;21.60
15680;BMP180;15488;48.114;11.532;2023-06-14T04:24:11;94962.00;;;21.60
15680;BMP180;15488;48.114;11.532;2023-06-14T04:26:39;94967.00;;;21.60
15680;BMP180;15488;48.114;11.532;2023-06-14T04:29:07;94964.00;;;21.50
15680;BMP180;15488;48.114;11.532;2023-06-14T04:31:34;94970.00;;;21.50
15680;BMP180;15488;48.114;11.532;2023-06-14T04:34:05;94972.00;;;21.50
15680;BMP180;15488;48.114;11.532;2023-06-14T04:36:32;94978.00;;;21.50
15680;BMP180;15488;48.114;11.532;2023-06-14T04:39:03;94967.00;;;21.50
15680;BMP180;15488;48.114;11.532;2023-06-14T04:41:31;94973.00;;;21.50
15680;BMP180;15488;48.114;11.532;2023-06-14T04:43:59;94980.00;;;21.50
15680;BMP180;15488;48.114;11.532;2023-06-14T04:46:27;94969.00;;;21.50
15680;BMP180;15488;48.114;11.532;2023-06-14T04:48:56;94983.00;;;21.50
15680;BMP180;15488;48.114;11.532;2023-06-14T04:51:25;94985.00;;;21.50
15680;BMP180;15488;48.114;11.532;2023-06-14T04:53:56;94986.00;;;21.50
15680;BMP180;15488;48.114;11.532;2023-06-14T04:56:24;94981.00;;;21.50
15680;BMP180;15488;48.114;11.532;2023-06-14T04:58:52;94985.00;;;21.50
15680;BMP180;15488;48.114;11.532;2023-06-14T05:01:22;94982.00;;;21.50
15680;BMP180;15488;48.114;11.532;2023-06-14T05:03:50;94979.00;;;21.60
15680;BMP180;15488;48.114;11.532;2023-06-14T05:06:18;94985.00;;;21.60
15680;BMP180;15488;48.114;11.532;2023-06-14T05:08:47;94989.00;;;21.60
15680;BMP180;15488;48.114;11.532;2023-06-14T05:11:14;94990.00;;;21.60
15680;BMP180;15488;48.114;11.532;2023-06-14T05:13:43;94988.00;;;21.70
15680;BMP180;15488;48.114;11.532;2023-06-14T05:16:11;94989.00;;;21.70
15680;BMP180;15488;48.114;11.532;2023-06-14T05:18:38;94999.00;;;21.70
15680;BMP180;15488;48.114;11.532;2023-06-14T05:21:06;94993.00;;;21.70
15680;BMP180;15488;48.114;11.532;2023-06-14T05:23:34;94993.00;;;21.80
15680;BMP180;15488;48.114;11.532;2023-06-14T05:26:03;94998.00;;;21.80
15680;BMP180;15488;48.114;11.532;2023-06-14T05:28:32;94999.00;;;21.80
15680;BMP180;15488;48.114;11.532;2023-06-14T05:31:00;95001.00;;;21.90
15680;BMP180;15488;48.114;11.532;2023-06-14T05:33:27;95002.00;;;21.90
15680;BMP180;15488;48.114;11.532;2023-06-14T05:35:55;95002.00;;;22.00
15680;BMP180;15488;48.114;11.532;2023-06-14T05:38:22;95006.00;;;22.00
15680;BMP180;15488;48.114;11.532;2023-06-14T05:40:50;95002.00;;;22.00
15680;BMP180;15488;48.114;11.532;2023-06-14T05:43:18;95006.00;;;22.00
15680;BMP180;15488;48.114;11.532;2023-06-14T05:45:46;95005.00;;;22.10
15680;BMP180;15488;48.114;11.532;2023-06-14T05:48:13;95007.00;;;22.10
15680;BMP180;15488;48.114;11.532;2023-06-14T05:50:41;95004.00;;;22.20
15680;BMP180;15488;48.114;11.532;2023-06-14T05:53:08;95000.00;;;22.20
15680;BMP180;15488;48.114;11.532;2023-06-14T05:55:36;95007.00;;;22.30
15680;BMP180;15488;48.114;11.532;2023-06-14T05:58:03;95003.00;;;22.20
15680;BMP180;15488;48.114;11.532;2023-06-14T06:00:32;95002.00;;;22.30
15680;BMP180;15488;48.114;11.532;2023-06-14T06:02:59;94913.00;;;22.30
15680;BMP180;15488;48.114;11.532;2023-06-14T06:05:27;95007.00;;;22.30
15680;BMP180;15488;48.114;11.532;2023-06-14T06:07:54;95005.00;;;22.40
15680;BMP180;15488;48.114;11.532;2023-06-14T06:10:22;95015.00;;;22.50
15680;BMP180;15488;48.114;11.532;2023-06-14T06:12:49;95019.00;;;22.50
15680;BMP180;15488;48.114;11.532;2023-06-14T06:15:18;95018.00;;;22.60
15680;BMP180;15488;48.114;11.532;2023-06-14T06:17:47;95015.00;;;22.60
15680;BMP180;15488;48.114;11.532;2023-06-14T06:20:15;95020.00;;;22.70
15680;BMP180;15488;48.114;11.532;2023-06-14T06:22:43;95020.00;;;22.80
15680;BMP180;15488;48.114;11.532;2023-06-14T06:25:11;95022.00;;;22.80
15680;BMP180;15488;48.114;11.532;2023-06-14T06:27:39;95026.00;;;22.80
15680;BMP180;15488;48.114;11.532;2023-06-14T06:30:07;95020.00;;;22.90
15680;BMP180;15488;48.114;11.532;2023-06-14T06:32:35;95023.00;;;23.00
15680;BMP180;15488;48.114;11.532;2023-06-14T06:35:04;95026.00;;;23.00
15680;BMP180;15488;48.114;11.532;2023-06-14T06:37:33;95019.00;;;23.10
15680;BMP180;15488;48.114;11.532;2023-06-14T06:40:01;95021.00;;;23.10
15680;BMP180;15488;48.114;11.532;2023-06-14T06:42:30;95021.00;;;23.10
15680;BMP180;15488;48.114;11.532;2023-06-14T06:44:57;95030.00;;;23.20
15680;BMP180;15488;48.114;11.532;2023-06-14T06:47:25;95031.00;;;23.30
15680;BMP180;15488;48.114;11.532;2023-06-14T06:49:52;95034.00;;;23.30
15680;BMP180;15488;48.114;11.532;2023-06-14T06:52:21;95041.00;;;23.40
15680;BMP180;15488;48.114;11.532;2023-06-14T06:54:49;95042.00;;;23.40
15680;BMP180;15488;48.114;11.532;2023-06-14T06:57:20;95041.00;;;23.50
15680;BMP180;15488;48.114;11.532;2023-06-14T06:59:48;95037.00;;;23.60
15680;BMP180;15488;48.114;11.532;2023-06-14T07:02:16;95027.00;;;23.60
15680;BMP180;15488;48.114;11.532;2023-06-14T07:04:44;95028.00;;;23.70
15680;BMP180;15488;48.114;11.532;2023-06-14T07:07:11;95039.00;;;23.70
15680;BMP180;15488;48.114;11.532;2023-06-14T07:09:40;95033.00;;;23.70
15680;BMP180;15488;48.114;11.532;2023-06-14T07:12:08;95044.00;;;23.80
15680;BMP180;15488;48.114;11.532;2023-06-14T07:14:36;95044.00;;;23.90
15680;BMP180;15488;48.114;11.532;2023-06-14T07:17:04;95043.00;;;23.90
15680;BMP180;15488;48.114;11.532;2023-06-14T07:19:32;95045.00;;;24.00
15680;BMP180;15488;48.114;11.532;2023-06-14T07:21:59;95053.00;;;24.00
15680;BMP180;15488;48.114;11.532;2023-06-14T07:24:26;95048.00;;;24.10
15680;BMP180;15488;48.114;11.532;2023-06-14T07:26:56;95047.00;;;24.10
15680;BMP180;15488;48.114;11.532;2023-06-14T07:29:24;95049.00;;;24.20
15680;BMP180;15488;48.114;11.532;2023-06-14T07:31:52;95053.00;;;24.20
15680;BMP180;15488;48.114;11.532;2023-06-14T07:34:20;95054.00;;;24.20
15680;BMP180;15488;48.114;11.532;2023-06-14T07:36:47;95054.00;;;24.30
15680;BMP180;15488;48.114;11.532;2023-06-14T07:39:15;95057.00;;;24.40
15680;BMP180;15488;48.114;11.532;2023-06-14T07:41:42;95056.00;;;24.40
15680;BMP180;15488;48.114;11.532;2023-06-14T07:44:11;95060.00;;;24.50
15680;BMP180;15488;48.114;11.532;2023-06-14T07:46:39;95059.00;;;24.60
15680;BMP180;15488;48.114;11.532;2023-06-14T07:49:07;95062.00;;;24.60
15680;BMP180;15488;48.114;11.532;2023-06-14T07:51:34;95064.00;;;24.70
15680;BMP180;15488;48.114;11.532;2023-06-14T07:54:03;95064.00;;;24.80
15680;BMP180;15488;48.114;11.532;2023-06-14T07:56:30;95065.00;;;24.80
15680;BMP180;15488;48.114;11.532;2023-06-14T07:58:58;95063.00;;;24.90
15680;BMP180;15488;48.114;11.532;2023-06-14T08:01:27;95058.00;;;24.90
15680;BMP180;15488;48.114;11.532;2023-06-14T08:03:54;95057.00;;;25.00
15680;BMP180;15488;48.114;11.532;2023-06-14T08:06:22;95052.00;;;25.00
15680;BMP180;15488;48.114;11.532;2023-06-14T08:08:49;95062.00;;;25.10
15680;BMP180;15488;48.114;11.532;2023-06-14T08:11:16;95061.00;;;25.20
15680;BMP180;15488;48.114;11.532;2023-06-14T08:13:44;95061.00;;;25.30
15680;BMP180;15488;48.114;11.532;2023-06-14T08:16:11;95054.00;;;25.30
15680;BMP180;15488;48.114;11.532;2023-06-14T08:18:40;95058.00;;;25.40
15680;BMP180;15488;48.114;11.532;2023-06-14T08:21:08;95056.00;;;25.40
15680;BMP180;15488;48.114;11.532;2023-06-14T08:23:35;95059.00;;;25.50
15680;BMP180;15488;48.114;11.532;2023-06-14T08:26:03;95066.00;;;25.50
15680;BMP180;15488;48.114;11.532;2023-06-14T08:28:30;95065.00;;;25.60
15680;BMP180;15488;48.114;11.532;2023-06-14T08:30:58;95077.00;;;25.60
15680;BMP180;15488;48.114;11.532;2023-06-14T08:33:25;95074.00;;;25.70
15680;BMP180;15488;48.114;11.532;2023-06-14T08:35:54;95080.00;;;25.80
15680;BMP180;15488;48.114;11.532;2023-06-14T08:38:21;95072.00;;;25.90
15680;BMP180;15488;48.114;11.532;2023-06-14T08:40:51;95074.00;;;25.90
15680;BMP180;15488;48.114;11.532;2023-06-14T08:43:19;95073.00;;;26.00
15680;BMP180;15488;48.114;11.532;2023-06-14T08:45:47;95074.00;;;26.10
15680;BMP180;15488;48.114;11.532;2023-06-14T08:48:17;95079.00;;;26.20
15680;BMP180;15488;48.114;11.532;2023-06-14T08:50:48;95073.00;;;26.30
15680;BMP180;15488;48.114;11.532;2023-06-14T08:53:17;95078.00;;;26.30
15680;BMP180;15488;48.114;11.532;2023-06-14T08:55:45;95074.00;;;26.40
15680;BMP180;15488;48.114;11.532;2023-06-14T08:58:13;95078.00;;;26.40
15680;BMP180;15488;48.114;11.532;2023-06-14T09:00:42;95081.00;;;26.50
15680;BMP180;15488;48.114;11.532;2023-06-14T09:03:10;95074.00;;;26.60
15680;BMP180;15488;48.114;11.532;2023-06-14T09:05:39;95075.00;;;26.70
15680;BMP180;15488;48.114;11.532;2023-06-14T09:08:06;95084.00;;;26.70
15680;BMP180;15488;48.114;11.532;2023-06-14T09:10:36;95074.00;;;26.80
15680;BMP180;15488;48.114;11.532;2023-06-14T09:13:03;95075.00;;;26.90
15680;BMP180;15488;48.114;11.532;2023-06-14T09:15:31;95079.00;;;27.00
15680;BMP180;15488;48.114;11.532;2023-06-14T09:18:00;95080.00;;;27.00
15680;BMP180;15488;48.114;11.532;2023-06-14T09:20:30;95078.00;;;27.00
15680;BMP180;15488;48.114;11.532;2023-06-14T09:22:58;95084.00;;;27.10
15680;BMP180;15488;48.114;11.532;2023-06-14T09:25:26;95079.00;;;27.10
15680;BMP180;15488;48.114;11.532;2023-06-14T09:27:55;95078.00;;;27.20
15680;BMP180;15488;48.114;11.532;2023-06-14T09:30:23;95080.00;;;27.30
15680;BMP180;15488;48.114;11.532;2023-06-14T09:32:50;95088.00;;;27.40
15680;BMP180;15488;48.114;11.532;2023-06-14T09:35:18;95085.00;;;27.40
15680;BMP180;15488;48.114;11.532;2023-06-14T09:37:48;95085.00;;;27.50
15680;BMP180;15488;48.114;11.532;2023-06-14T09:40:20;95085.00;;;27.50
15680;BMP180;15488;48.114;11.532;2023-06-14T09:42:48;95087.00;;;27.50
15680;BMP180;15488;48.114;11.532;2023-06-14T09:45:18;95090.00;;;27.60
15680;BMP180;15488;48.114;11.532;2023-06-14T09:47:48;95093.00;;;27.70
15680;BMP180;15488;48.114;11.532;2023-06-14T09:50:16;95095.00;;;27.70
15680;BMP180;15488;48.114;11.532;2023-06-14T09:52:44;95102.00;;;27.80
15680;BMP180;15488;48.114;11.532;2023-06-14T09:55:13;95096.00;;;27.90
15680;BMP180;15488;48.114;11.532;2023-06-14T09:57:42;95088.00;;;28.00
15680;BMP180;15488;48.114;11.532;2023-06-14T10:00:14;95090.00;;;28.00
15680;BMP180;15488;48.114;11.532;2023-06-14T10:02:46;95097.00;;;28.10
15680;BMP180;15488;48.114;11.532;2023-06-14T10:05:18;95092.00;;;28.20
15680;BMP180;15488;48.114;11.532;2023-06-14T10:07:51;95083.00;;;28.20
15680;BMP180;15488;48.114;11.532;2023-06-14T10:10:20;95090.00;;;28.30
15680;BMP180;15488;48.114;11.532;2023-06-14T10:12:47;95090.00;;;28.40
15680;BMP180;15488;48.114;11.532;2023-06-14T10:15:19;95091.00;;;28.50
15680;BMP180;15488;48.114;11.532;2023-06-14T10:17:52;95091.00;;;28.50
15680;BMP180;15488;48.114;11.532;2023-06-14T10:20:28;95088.00;;;28.50
15680;BMP180;15488;48.114;11.532;2023-06-14T10:23:01;95087.00;;;28.50
15680;BMP180;15488;48.114;11.532;2023-06-14T10:25:32;95092.00;;;28.50
15680;BMP180;15488;48.114;11.532;2023-06-14T10:28:17;95100.00;;;28.60
15680;BMP180;15488;48.114;11.532;2023-06-14T10:31:03;95081.00;;;28.70
15680;BMP180;15488;48.114;11.532;2023-06-14T10:33:32;95079.00;;;28.70
15680;BMP180;15488;48.114;11.532;2023-06-14T10:36:24;95091.00;;;28.80
15680;BMP180;15488;48.114;11.532;2023-06-14T10:39:00;95076.00;;;28.90
15680;BMP180;15488;48.114;11.532;2023-06-14T10:41:29;95075.00;;;29.00
15680;BMP180;15488;48.114;11.532;2023-06-14T10:47:26;95075.00;;;29.20
15680;BMP180;15488;48.114;11.532;2023-06-14T10:49:56;95083.00;;;29.20
15680;BMP180;15488;48.114;11.532;2023-06-14T10:52:27;95087.00;;;29.30
15680;BMP180;15488;48.114;11.532;2023-06-14T10:55:03;95094.00;;;29.40
15680;BMP180;15488;48.114;11.532;2023-06-14T10:57:32;95088.00;;;29.40
15680;BMP180;15488;48.114;11.532;2023-06-14T11:00:00;95079.00;;;29.50
15680;BMP180;15488;48.114;11.532;2023-06-14T11:06:12;95088.00;;;29.70
15680;BMP180;15488;48.114;11.532;2023-06-14T11:11:39;95090.00;;;29.90
15680;BMP180;15488;48.114;11.532;2023-06-14T11:14:09;95083.00;;;29.90
15680;BMP180;15488;48.114;11.532;2023-06-14T11:16:37;95089.00;;;30.00
15680;BMP180;15488;48.114;11.532;2023-06-14T11:19:05;95078.00;;;30.00
15680;BMP180;15488;48.114;11.532;2023-06-14T11:21:34;95080.00;;;30.10
15680;BMP180;15488;48.114;11.532;2023-06-14T11:24:01;95079.00;;;30.10
15680;BMP180;15488;48.114;11.532;2023-06-14T11:26:30;95081.00;;;30.20
15680;BMP180;15488;48.114;11.532;2023-06-14T11:29:01;95077.00;;;30.20
15680;BMP180;15488;48.114;11.532;2023-06-14T11:31:29;95080.00;;;30.30
15680;BMP180;15488;48.114;11.532;2023-06-14T11:33:57;95083.00;;;30.30
15680;BMP180;15488;48.114;11.532;2023-06-14T11:36:28;95078.00;;;30.40
15680;BMP180;15488;48.114;11.532;2023-06-14T11:39:00;95077.00;;;30.50
15680;BMP180;15488;48.114;11.532;2023-06-14T11:41:38;95082.00;;;30.50
15680;BMP180;15488;48.114;11.532;2023-06-14T11:44:06;95080.00;;;30.60
15680;BMP180;15488;48.114;11.532;2023-06-14T11:46:34;95083.00;;;30.70
15680;BMP180;15488;48.114;11.532;2023-06-14T11:49:02;95078.00;;;30.80
15680;BMP180;15488;48.114;11.532;2023-06-14T11:51:30;95074.00;;;30.80
15680;BMP180;15488;48.114;11.532;2023-06-14T11:54:00;95074.00;;;30.90
15680;BMP180;15488;48.114;11.532;2023-06-14T11:56:28;95077.00;;;31.00
15680;BMP180;15488;48.114;11.532;2023-06-14T11:58:56;95071.00;;;31.10
15680;BMP180;15488;48.114;11.532;2023-06-14T12:01:25;95002.00;;;31.20
15680;BMP180;15488;48.114;11.532;2023-06-14T12:03:54;95073.00;;;31.30
15680;BMP180;15488;48.114;11.532;2023-06-14T12:06:29;95079.00;;;31.40
15680;BMP180;15488;48.114;11.532;2023-06-14T12:09:02;95080.00;;;31.50
15680;BMP180;15488;48.114;11.532;2023-06-14T12:11:33;95069.00;;;31.60
15680;BMP180;15488;48.114;11.532;2023-06-14T12:14:00;95073.00;;;31.60
15680;BMP180;15488;48.114;11.532;2023-06-14T12:16:34;95065.00;;;31.70
15680;BMP180;15488;48.114;11.532;2023-06-14T12:19:07;95068.00;;;31.70
15680;BMP180;15488;48.114;11.532;2023-06-14T12:21:37;95069.00;;;31.60
15680;BMP180;15488;48.114;11.532;2023-06-14T12:24:08;95068.00;;;31.60
15680;BMP180;15488;48.114;11.532;2023-06-14T12:26:39;95062.00;;;31.70
15680;BMP180;15488;48.114;11.532;2023-06-14T12:29:07;95065.00;;;31.80
15680;BMP180;15488;48.114;11.532;2023-06-14T12:31:35;95077.00;;;31.90
15680;BMP180;15488;48.114;11.532;2023-06-14T12:34:02;95071.00;;;32.00
15680;BMP180;15488;48.114;11.532;2023-06-14T12:36:30;95068.00;;;32.10
15680;BMP180;15488;48.114;11.532;2023-06-14T12:38:58;95065.00;;;32.20
15680;BMP180;15488;48.114;11.532;2023-06-14T12:41:27;95067.00;;;32.30
15680;BMP180;15488;48.114;11.532;2023-06-14T12:43:55;95075.00;;;32.40
15680;BMP180;15488;48.114;11.532;2023-06-14T12:46:24;95072.00;;;32.50
15680;BMP180;15488;48.114;11.532;2023-06-14T12:48:51;95067.00;;;32.70
15680;BMP180;15488;48.114;11.532;2023-06-14T12:51:19;95072.00;;;32.90
15680;BMP180;15488;48.114;11.532;2023-06-14T12:53:46;95068.00;;;33.00
15680;BMP180;15488;48.114;11.532;2023-06-14T12:56:15;95079.00;;;33.10
15680;BMP180;15488;48.114;11.532;2023-06-14T12:58:44;95079.00;;;33.20
15680;BMP180;15488;48.114;11.532;2023-06-14T13:01:11;95070.00;;;33.40
15680;BMP180;15488;48.114;11.532;2023-06-14T13:03:38;95082.00;;;33.50
15680;BMP180;15488;48.114;11.532;2023-06-14T13:06:06;95079.00;;;33.60
15680;BMP180;15488;48.114;11.532;2023-06-14T13:08:33;95079.00;;;33.70
15680;BMP180;15488;48.114;11.532;2023-06-14T13:11:01;95077.00;;;33.80
15680;BMP180;15488;48.114;11.532;2023-06-14T13:13:28;95073.00;;;34.00
15680;BMP180;15488;48.114;11.532;2023-06-14T13:15:57;95079.00;;;34.10
15680;BMP180;15488;48.114;11.532;2023-06-14T13:18:25;95079.00;;;34.30
15680;BMP180;15488;48.114;11.532;2023-06-14T13:20:52;95077.00;;;34.50
15680;BMP180;15488;48.114;11.532;2023-06-14T13:23:20;95077.00;;;34.70
15680;BMP180;15488;48.114;11.532;2023-06-14T13:25:47;95079.00;;;34.60
15680;BMP180;15488;48.114;11.532;2023-06-14T13:28:15;95082.00;;;34.60
15680;BMP180;15488;48.114;11.532;2023-06-14T13:30:43;95082.00;;;34.60
15680;BMP180;15488;48.114;11.532;2023-06-14T13:33:12;95073.00;;;34.60
15680;BMP180;15488;48.114;11.532;2023-06-14T13:35:40;95070.00;;;34.60
15680;BMP180;15488;48.114;11.532;2023-06-14T13:38:09;95069.00;;;34.70
15680;BMP180;15488;48.114;11.532;2023-06-14T13:40:36;95062.00;;;34.80
15680;BMP180;15488;48.114;11.532;2023-06-14T13:43:04;95054.00;;;34.90
15680;BMP180;15488;48.114;11.532;2023-06-14T13:45:31;95060.00;;;35.20
15680;BMP180;15488;48.114;11.532;2023-06-14T13:47:59;95062.00;;;35.50
15680;BMP180;15488;48.114;11.532;2023-06-14T13:50:28;95058.00;;;36.20
15680;BMP180;15488;48.114;11.532;2023-06-14T13:52:55;95060.00;;;37.10
15680;BMP180;15488;48.114;11.532;2023-06-14T13:55:22;95058.00;;;37.70
15680;BMP180;15488;48.114;11.532;2023-06-14T13:57:50;95063.00;;;38.40
15680;BMP180;15488;48.114;11.532;2023-06-14T14:00:19;95057.00;;;38.90
15680;BMP180;15488;48.114;11.532;2023-06-14T14:02:46;95066.00;;;39.60
15680;BMP180;15488;48.114;11.532;2023-06-14T14:05:16;95062.00;;;40.20
15680;BMP180;15488;48.114;11.532;2023-06-14T14:07:45;95061.00;;;40.80
15680;BMP180;15488;48.114;11.532;2023-06-14T14:10:13;95053.00;;;41.40
15680;BMP180;15488;48.114;11.532;2023-06-14T14:12:40;95051.00;;;42.00
15680;BMP180;15488;48.114;11.532;2023-06-14T14:15:08;95047.00;;;42.40